sensor_id;sensor_type;location;lat;lon;timestamp;P1;durP1;ratioP1;P2;durP2;ratioP2
47309;SDS011;33046;52.270;6.832;2023-07-30T00:00:02;6.78;;;1.20;;
47309;SDS011;33046;52.270;6.832;2023-07-30T00:02:17;4.72;;;1.60;;
47309;SDS011;33046;52.270;6.832;2023-07-30T00:04:25;3.67;;;0.95;;
47309;SDS011;33046;52.270;6.832;2023-07-30T00:06:32;5.10;;;1.35;;
47309;SDS011;33046;52.270;6.832;2023-07-30T00:08:39;4.57;;;1.10;;
47309;SDS011;33046;52.270;6.832;2023-07-30T00:10:46;4.18;;;1.15;;
47309;SDS011;33046;52.270;6.832;2023-07-30T00:12:53;3.30;;;1.10;;
47309;SDS011;33046;52.270;6.832;2023-07-30T00:15:00;6.10;;;1.15;;
47309;SDS011;33046;52.270;6.832;2023-07-30T00:17:06;7.22;;;1.25;;
47309;SDS011;33046;52.270;6.832;2023-07-30T00:19:13;5.82;;;1.35;;
47309;SDS011;33046;52.270;6.832;2023-07-30T00:21:22;3.78;;;1.00;;
47309;SDS011;33046;52.270;6.832;2023-07-30T00:23:28;3.13;;;1.10;;
47309;SDS011;33046;52.270;6.832;2023-07-30T00:25:35;6.20;;;1.90;;
47309;SDS011;33046;52.270;6.832;2023-07-30T00:27:42;3.35;;;1.25;;
47309;SDS011;33046;52.270;6.832;2023-07-30T00:29:49;8.82;;;1.77;;
47309;SDS011;33046;52.270;6.832;2023-07-30T00:31:56;6.10;;;1.33;;
47309;SDS011;33046;52.270;6.832;2023-07-30T00:34:03;5.68;;;1.10;;
47309;SDS011;33046;52.270;6.832;2023-07-30T00:36:10;6.32;;;1.38;;
47309;SDS011;33046;52.270;6.832;2023-07-30T00:38:19;4.78;;;1.25;;
47309;SDS011;33046;52.270;6.832;2023-07-30T00:40:26;3.33;;;1.40;;
47309;SDS011;33046;52.270;6.832;2023-07-30T00:42:33;8.75;;;1.48;;
47309;SDS011;33046;52.270;6.832;2023-07-30T00:44:39;7.13;;;2.00;;
47309;SDS011;33046;52.270;6.832;2023-07-30T00:46:46;3.90;;;1.65;;
47309;SDS011;33046;52.270;6.832;2023-07-30T00:48:53;4.03;;;1.45;;
47309;SDS011;33046;52.270;6.832;2023-07-30T00:51:00;8.35;;;2.53;;
47309;SDS011;33046;52.270;6.832;2023-07-30T00:53:07;5.88;;;1.50;;
47309;SDS011;33046;52.270;6.832;2023-07-30T00:55:17;6.57;;;2.53;;
47309;SDS011;33046;52.270;6.832;2023-07-30T00:57:24;4.13;;;1.48;;
47309;SDS011;33046;52.270;6.832;2023-07-30T00:59:31;2.55;;;1.13;;
47309;SDS011;33046;52.270;6.832;2023-07-30T01:01:38;6.40;;;1.60;;
47309;SDS011;33046;52.270;6.832;2023-07-30T01:03:48;7.50;;;1.60;;
47309;SDS011;33046;52.270;6.832;2023-07-30T01:05:55;4.90;;;1.52;;
47309;SDS011;33046;52.270;6.832;2023-07-30T01:08:03;7.07;;;1.88;;
47309;SDS011;33046;52.270;6.832;2023-07-30T01:10:09;5.05;;;1.90;;
47309;SDS011;33046;52.270;6.832;2023-07-30T01:12:18;3.55;;;2.15;;
47309;SDS011;33046;52.270;6.832;2023-07-30T01:14:25;4.35;;;2.30;;
47309;SDS011;33046;52.270;6.832;2023-07-30T01:16:32;4.80;;;1.80;;
47309;SDS011;33046;52.270;6.832;2023-07-30T01:18:39;5.78;;;2.00;;
47309;SDS011;33046;52.270;6.832;2023-07-30T01:20:46;5.13;;;2.00;;
47309;SDS011;33046;52.270;6.832;2023-07-30T01:22:54;6.22;;;2.08;;
47309;SDS011;33046;52.270;6.832;2023-07-30T01:25:01;5.70;;;1.60;;
47309;SDS011;33046;52.270;6.832;2023-07-30T01:27:11;5.40;;;1.85;;
47309;SDS011;33046;52.270;6.832;2023-07-30T01:29:22;8.70;;;2.05;;
47309;SDS011;33046;52.270;6.832;2023-07-30T01:31:39;7.25;;;1.88;;
47309;SDS011;33046;52.270;6.832;2023-07-30T01:33:48;3.28;;;1.92;;
47309;SDS011;33046;52.270;6.832;2023-07-30T01:35:58;4.70;;;2.10;;
47309;SDS011;33046;52.270;6.832;2023-07-30T01:38:07;5.20;;;1.90;;
47309;SDS011;33046;52.270;6.832;2023-07-30T01:40:16;4.38;;;2.80;;
47309;SDS011;33046;52.270;6.832;2023-07-30T01:42:27;6.43;;;2.55;;
47309;SDS011;33046;52.270;6.832;2023-07-30T01:44:34;14.88;;;3.22;;
47309;SDS011;33046;52.270;6.832;2023-07-30T01:46:41;5.07;;;2.10;;
47309;SDS011;33046;52.270;6.832;2023-07-30T01:48:48;4.82;;;1.83;;
47309;SDS011;33046;52.270;6.832;2023-07-30T01:50:55;5.47;;;2.60;;
47309;SDS011;33046;52.270;6.832;2023-07-30T01:53:02;6.18;;;1.70;;
47309;SDS011;33046;52.270;6.832;2023-07-30T01:55:10;6.45;;;2.42;;
47309;SDS011;33046;52.270;6.832;2023-07-30T01:57:17;7.45;;;1.75;;
47309;SDS011;33046;52.270;6.832;2023-07-30T01:59:24;4.55;;;1.70;;
47309;SDS011;33046;52.270;6.832;2023-07-30T02:01:31;6.10;;;1.55;;
47309;SDS011;33046;52.270;6.832;2023-07-30T02:03:38;8.13;;;1.83;;
47309;SDS011;33046;52.270;6.832;2023-07-30T02:05:46;5.47;;;1.88;;
47309;SDS011;33046;52.270;6.832;2023-07-30T02:07:53;7.18;;;1.98;;
47309;SDS011;33046;52.270;6.832;2023-07-30T02:10:00;5.70;;;1.90;;
47309;SDS011;33046;52.270;6.832;2023-07-30T02:12:08;4.53;;;2.22;;
47309;SDS011;33046;52.270;6.832;2023-07-30T02:14:15;6.20;;;1.70;;
47309;SDS011;33046;52.270;6.832;2023-07-30T02:16:22;6.57;;;2.28;;
47309;SDS011;33046;52.270;6.832;2023-07-30T02:18:29;4.45;;;1.75;;
47309;SDS011;33046;52.270;6.832;2023-07-30T02:20:36;3.83;;;1.70;;
47309;SDS011;33046;52.270;6.832;2023-07-30T02:22:43;6.05;;;2.03;;
47309;SDS011;33046;52.270;6.832;2023-07-30T02:24:49;4.80;;;1.40;;
47309;SDS011;33046;52.270;6.832;2023-07-30T02:26:56;8.13;;;2.38;;
47309;SDS011;33046;52.270;6.832;2023-07-30T02:29:05;4.72;;;1.83;;
47309;SDS011;33046;52.270;6.832;2023-07-30T02:31:12;5.53;;;1.63;;
47309;SDS011;33046;52.270;6.832;2023-07-30T02:33:18;5.10;;;1.63;;
47309;SDS011;33046;52.270;6.832;2023-07-30T02:35:25;4.18;;;2.20;;
47309;SDS011;33046;52.270;6.832;2023-07-30T02:37:32;5.22;;;1.40;;
47309;SDS011;33046;52.270;6.832;2023-07-30T02:39:40;5.03;;;1.63;;
47309;SDS011;33046;52.270;6.832;2023-07-30T02:41:47;3.97;;;1.98;;
47309;SDS011;33046;52.270;6.832;2023-07-30T02:43:54;5.70;;;1.92;;
47309;SDS011;33046;52.270;6.832;2023-07-30T02:46:02;4.18;;;1.40;;
47309;SDS011;33046;52.270;6.832;2023-07-30T02:48:09;5.38;;;1.77;;
47309;SDS011;33046;52.270;6.832;2023-07-30T02:50:15;5.00;;;1.90;;
47309;SDS011;33046;52.270;6.832;2023-07-30T02:52:23;6.15;;;1.98;;
47309;SDS011;33046;52.270;6.832;2023-07-30T02:54:30;4.93;;;1.50;;
47309;SDS011;33046;52.270;6.832;2023-07-30T02:56:37;3.40;;;2.13;;
47309;SDS011;33046;52.270;6.832;2023-07-30T02:58:44;6.00;;;2.25;;
47309;SDS011;33046;52.270;6.832;2023-07-30T03:00:51;8.23;;;2.33;;
47309;SDS011;33046;52.270;6.832;2023-07-30T03:02:59;6.35;;;2.00;;
47309;SDS011;33046;52.270;6.832;2023-07-30T03:05:06;7.22;;;1.60;;
47309;SDS011;33046;52.270;6.832;2023-07-30T03:07:14;6.03;;;1.85;;
47309;SDS011;33046;52.270;6.832;2023-07-30T03:09:21;5.95;;;1.92;;
47309;SDS011;33046;52.270;6.832;2023-07-30T03:11:27;6.75;;;2.08;;
47309;SDS011;33046;52.270;6.832;2023-07-30T03:13:34;6.07;;;1.92;;
47309;SDS011;33046;52.270;6.832;2023-07-30T03:15:41;7.63;;;1.77;;
47309;SDS011;33046;52.270;6.832;2023-07-30T03:17:48;6.97;;;1.92;;
47309;SDS011;33046;52.270;6.832;2023-07-30T03:19:57;9.38;;;2.13;;
47309;SDS011;33046;52.270;6.832;2023-07-30T03:22:04;5.10;;;1.83;;
47309;SDS011;33046;52.270;6.832;2023-07-30T03:24:11;3.17;;;1.20;;
47309;SDS011;33046;52.270;6.832;2023-07-30T03:26:17;7.30;;;1.85;;
47309;SDS011;33046;52.270;6.832;2023-07-30T03:28:24;4.13;;;1.30;;
47309;SDS011;33046;52.270;6.832;2023-07-30T03:30:31;8.15;;;2.33;;
47309;SDS011;33046;52.270;6.832;2023-07-30T03:32:38;4.38;;;1.70;;
47309;SDS011;33046;52.270;6.832;2023-07-30T03:34:45;3.95;;;1.85;;
47309;SDS011;33046;52.270;6.832;2023-07-30T03:36:53;3.47;;;1.40;;
47309;SDS011;33046;52.270;6.832;2023-07-30T03:39:01;6.85;;;1.83;;
47309;SDS011;33046;52.270;6.832;2023-07-30T03:41:09;4.55;;;1.65;;
47309;SDS011;33046;52.270;6.832;2023-07-30T03:43:16;4.30;;;2.10;;
47309;SDS011;33046;52.270;6.832;2023-07-30T03:45:23;4.63;;;2.47;;
47309;SDS011;33046;52.270;6.832;2023-07-30T03:47:30;8.25;;;2.35;;
47309;SDS011;33046;52.270;6.832;2023-07-30T03:49:37;5.43;;;1.67;;
47309;SDS011;33046;52.270;6.832;2023-07-30T03:51:44;4.60;;;1.80;;
47309;SDS011;33046;52.270;6.832;2023-07-30T03:53:52;6.25;;;2.60;;
47309;SDS011;33046;52.270;6.832;2023-07-30T03:55:59;3.63;;;1.48;;
47309;SDS011;33046;52.270;6.832;2023-07-30T03:58:06;4.18;;;1.50;;
47309;SDS011;33046;52.270;6.832;2023-07-30T04:00:13;4.60;;;1.92;;
47309;SDS011;33046;52.270;6.832;2023-07-30T04:02:20;5.18;;;1.73;;
47309;SDS011;33046;52.270;6.832;2023-07-30T04:04:27;5.22;;;2.40;;
47309;SDS011;33046;52.270;6.832;2023-07-30T04:06:34;6.80;;;2.67;;
47309;SDS011;33046;52.270;6.832;2023-07-30T04:08:41;6.80;;;2.90;;
47309;SDS011;33046;52.270;6.832;2023-07-30T04:10:50;6.80;;;1.65;;
47309;SDS011;33046;52.270;6.832;2023-07-30T04:12:56;6.00;;;1.85;;
47309;SDS011;33046;52.270;6.832;2023-07-30T04:15:05;5.80;;;2.38;;
47309;SDS011;33046;52.270;6.832;2023-07-30T04:17:13;4.15;;;2.10;;
47309;SDS011;33046;52.270;6.832;2023-07-30T04:19:20;5.20;;;2.38;;
47309;SDS011;33046;52.270;6.832;2023-07-30T04:21:27;9.38;;;2.60;;
47309;SDS011;33046;52.270;6.832;2023-07-30T04:23:33;12.40;;;3.15;;
47309;SDS011;33046;52.270;6.832;2023-07-30T04:25:40;6.63;;;2.22;;
47309;SDS011;33046;52.270;6.832;2023-07-30T04:27:48;7.22;;;2.80;;
47309;SDS011;33046;52.270;6.832;2023-07-30T04:29:55;6.82;;;1.92;;
47309;SDS011;33046;52.270;6.832;2023-07-30T04:32:02;6.13;;;2.58;;
47309;SDS011;33046;52.270;6.832;2023-07-30T04:34:10;5.35;;;1.88;;
47309;SDS011;33046;52.270;6.832;2023-07-30T04:36:17;7.07;;;2.58;;
47309;SDS011;33046;52.270;6.832;2023-07-30T04:38:26;7.35;;;2.35;;
47309;SDS011;33046;52.270;6.832;2023-07-30T04:40:33;4.95;;;1.83;;
47309;SDS011;33046;52.270;6.832;2023-07-30T04:42:40;6.70;;;2.00;;
47309;SDS011;33046;52.270;6.832;2023-07-30T04:44:50;8.35;;;2.20;;
47309;SDS011;33046;52.270;6.832;2023-07-30T04:46:57;7.63;;;3.10;;
47309;SDS011;33046;52.270;6.832;2023-07-30T04:49:04;4.55;;;1.98;;
47309;SDS011;33046;52.270;6.832;2023-07-30T04:51:11;8.40;;;2.40;;
47309;SDS011;33046;52.270;6.832;2023-07-30T04:53:18;7.78;;;2.83;;
47309;SDS011;33046;52.270;6.832;2023-07-30T04:55:25;9.13;;;3.13;;
47309;SDS011;33046;52.270;6.832;2023-07-30T04:57:32;8.57;;;3.15;;
47309;SDS011;33046;52.270;6.832;2023-07-30T04:59:40;8.18;;;3.10;;
47309;SDS011;33046;52.270;6.832;2023-07-30T05:01:48;9.07;;;3.65;;
47309;SDS011;33046;52.270;6.832;2023-07-30T05:03:55;5.88;;;2.13;;
47309;SDS011;33046;52.270;6.832;2023-07-30T05:06:02;8.55;;;2.67;;
47309;SDS011;33046;52.270;6.832;2023-07-30T05:08:09;5.93;;;2.55;;
47309;SDS011;33046;52.270;6.832;2023-07-30T05:10:16;8.55;;;2.63;;
47309;SDS011;33046;52.270;6.832;2023-07-30T05:12:24;8.07;;;2.80;;
47309;SDS011;33046;52.270;6.832;2023-07-30T05:14:31;12.98;;;4.13;;
47309;SDS011;33046;52.270;6.832;2023-07-30T05:16:38;7.97;;;3.42;;
47309;SDS011;33046;52.270;6.832;2023-07-30T05:18:46;8.20;;;3.28;;
47309;SDS011;33046;52.270;6.832;2023-07-30T05:20:53;7.85;;;3.83;;
47309;SDS011;33046;52.270;6.832;2023-07-30T05:23:00;8.95;;;3.50;;
47309;SDS011;33046;52.270;6.832;2023-07-30T05:25:07;11.13;;;3.70;;
47309;SDS011;33046;52.270;6.832;2023-07-30T05:27:14;9.82;;;4.68;;
47309;SDS011;33046;52.270;6.832;2023-07-30T05:29:21;13.85;;;4.40;;
47309;SDS011;33046;52.270;6.832;2023-07-30T05:31:28;13.23;;;5.05;;
47309;SDS011;33046;52.270;6.832;2023-07-30T05:33:35;12.98;;;5.13;;
47309;SDS011;33046;52.270;6.832;2023-07-30T05:35:43;14.68;;;5.32;;
47309;SDS011;33046;52.270;6.832;2023-07-30T05:37:50;11.73;;;4.45;;
47309;SDS011;33046;52.270;6.832;2023-07-30T05:39:57;12.95;;;5.00;;
47309;SDS011;33046;52.270;6.832;2023-07-30T05:42:04;14.80;;;5.15;;
47309;SDS011;33046;52.270;6.832;2023-07-30T05:44:11;14.20;;;7.22;;
47309;SDS011;33046;52.270;6.832;2023-07-30T05:46:18;16.20;;;6.32;;
47309;SDS011;33046;52.270;6.832;2023-07-30T05:48:24;15.77;;;5.93;;
47309;SDS011;33046;52.270;6.832;2023-07-30T05:50:31;14.02;;;5.75;;
47309;SDS011;33046;52.270;6.832;2023-07-30T05:52:40;9.68;;;4.68;;
47309;SDS011;33046;52.270;6.832;2023-07-30T05:54:46;17.00;;;6.45;;
47309;SDS011;33046;52.270;6.832;2023-07-30T05:56:53;13.85;;;6.82;;
47309;SDS011;33046;52.270;6.832;2023-07-30T05:59:00;11.05;;;5.60;;
47309;SDS011;33046;52.270;6.832;2023-07-30T06:01:07;14.13;;;6.15;;
47309;SDS011;33046;52.270;6.832;2023-07-30T06:03:14;16.90;;;6.57;;
47309;SDS011;33046;52.270;6.832;2023-07-30T06:05:21;20.77;;;7.47;;
47309;SDS011;33046;52.270;6.832;2023-07-30T06:07:28;10.50;;;6.93;;
47309;SDS011;33046;52.270;6.832;2023-07-30T06:09:36;17.52;;;7.53;;
47309;SDS011;33046;52.270;6.832;2023-07-30T06:11:43;13.23;;;6.07;;
47309;SDS011;33046;52.270;6.832;2023-07-30T06:13:50;14.35;;;7.13;;
47309;SDS011;33046;52.270;6.832;2023-07-30T06:15:56;18.17;;;7.80;;
47309;SDS011;33046;52.270;6.832;2023-07-30T06:18:03;12.05;;;6.57;;
47309;SDS011;33046;52.270;6.832;2023-07-30T06:20:11;15.73;;;6.55;;
47309;SDS011;33046;52.270;6.832;2023-07-30T06:22:18;14.68;;;6.63;;
47309;SDS011;33046;52.270;6.832;2023-07-30T06:24:25;13.63;;;7.75;;
47309;SDS011;33046;52.270;6.832;2023-07-30T06:26:33;17.10;;;6.43;;
47309;SDS011;33046;52.270;6.832;2023-07-30T06:28:40;15.68;;;6.55;;
47309;SDS011;33046;52.270;6.832;2023-07-30T06:30:47;17.02;;;8.15;;
47309;SDS011;33046;52.270;6.832;2023-07-30T06:32:53;13.95;;;7.00;;
47309;SDS011;33046;52.270;6.832;2023-07-30T06:35:00;14.07;;;6.63;;
47309;SDS011;33046;52.270;6.832;2023-07-30T06:37:07;14.43;;;7.00;;
47309;SDS011;33046;52.270;6.832;2023-07-30T06:39:14;16.00;;;6.80;;
47309;SDS011;33046;52.270;6.832;2023-07-30T06:41:21;12.00;;;7.22;;
47309;SDS011;33046;52.270;6.832;2023-07-30T06:43:29;14.48;;;6.32;;
47309;SDS011;33046;52.270;6.832;2023-07-30T06:45:36;14.75;;;7.10;;
47309;SDS011;33046;52.270;6.832;2023-07-30T06:47:43;18.52;;;8.20;;
47309;SDS011;33046;52.270;6.832;2023-07-30T06:49:50;13.20;;;6.13;;
47309;SDS011;33046;52.270;6.832;2023-07-30T06:51:56;16.77;;;6.78;;
47309;SDS011;33046;52.270;6.832;2023-07-30T06:54:03;13.88;;;7.60;;
47309;SDS011;33046;52.270;6.832;2023-07-30T06:56:10;13.70;;;6.20;;
47309;SDS011;33046;52.270;6.832;2023-07-30T06:58:17;17.30;;;7.20;;
47309;SDS011;33046;52.270;6.832;2023-07-30T07:00:25;12.18;;;6.18;;
47309;SDS011;33046;52.270;6.832;2023-07-30T07:02:32;17.38;;;6.72;;
47309;SDS011;33046;52.270;6.832;2023-07-30T07:04:39;14.63;;;7.20;;
47309;SDS011;33046;52.270;6.832;2023-07-30T07:06:46;13.80;;;6.00;;
47309;SDS011;33046;52.270;6.832;2023-07-30T07:08:53;17.33;;;6.28;;
47309;SDS011;33046;52.270;6.832;2023-07-30T07:11:00;14.25;;;6.85;;
47309;SDS011;33046;52.270;6.832;2023-07-30T07:13:07;14.90;;;6.10;;
47309;SDS011;33046;52.270;6.832;2023-07-30T07:15:14;15.55;;;6.93;;
47309;SDS011;33046;52.270;6.832;2023-07-30T07:17:22;13.82;;;7.03;;
47309;SDS011;33046;52.270;6.832;2023-07-30T07:19:29;14.52;;;6.97;;
47309;SDS011;33046;52.270;6.832;2023-07-30T07:21:36;15.52;;;6.82;;
47309;SDS011;33046;52.270;6.832;2023-07-30T07:23:43;16.25;;;5.90;;
47309;SDS011;33046;52.270;6.832;2023-07-30T07:25:50;15.95;;;6.63;;
47309;SDS011;33046;52.270;6.832;2023-07-30T07:27:57;12.30;;;6.30;;
47309;SDS011;33046;52.270;6.832;2023-07-30T07:30:05;13.20;;;6.32;;
47309;SDS011;33046;52.270;6.832;2023-07-30T07:32:13;12.50;;;6.57;;
47309;SDS011;33046;52.270;6.832;2023-07-30T07:34:21;12.77;;;5.57;;
47309;SDS011;33046;52.270;6.832;2023-07-30T07:36:28;10.05;;;5.45;;
47309;SDS011;33046;52.270;6.832;2023-07-30T07:38:35;11.88;;;5.80;;
47309;SDS011;33046;52.270;6.832;2023-07-30T07:40:42;16.65;;;6.20;;
47309;SDS011;33046;52.270;6.832;2023-07-30T07:42:48;15.80;;;7.35;;
47309;SDS011;33046;52.270;6.832;2023-07-30T07:44:55;12.48;;;6.03;;
47309;SDS011;33046;52.270;6.832;2023-07-30T07:47:02;13.48;;;5.47;;
47309;SDS011;33046;52.270;6.832;2023-07-30T07:49:09;14.55;;;6.50;;
47309;SDS011;33046;52.270;6.832;2023-07-30T07:51:18;13.35;;;6.43;;
47309;SDS011;33046;52.270;6.832;2023-07-30T07:53:24;12.63;;;5.97;;
47309;SDS011;33046;52.270;6.832;2023-07-30T07:55:31;14.50;;;5.88;;
47309;SDS011;33046;52.270;6.832;2023-07-30T07:57:38;12.32;;;6.00;;
47309;SDS011;33046;52.270;6.832;2023-07-30T07:59:45;14.90;;;6.38;;
47309;SDS011;33046;52.270;6.832;2023-07-30T08:01:52;10.50;;;5.07;;
47309;SDS011;33046;52.270;6.832;2023-07-30T08:03:59;11.90;;;4.95;;
47309;SDS011;33046;52.270;6.832;2023-07-30T08:06:06;10.65;;;5.30;;
47309;SDS011;33046;52.270;6.832;2023-07-30T08:08:14;9.50;;;5.22;;
47309;SDS011;33046;52.270;6.832;2023-07-30T08:10:22;15.18;;;6.13;;
47309;SDS011;33046;52.270;6.832;2023-07-30T08:12:30;11.43;;;4.97;;
47309;SDS011;33046;52.270;6.832;2023-07-30T08:14:37;13.23;;;6.65;;
47309;SDS011;33046;52.270;6.832;2023-07-30T08:16:44;9.00;;;5.63;;
47309;SDS011;33046;52.270;6.832;2023-07-30T08:18:51;11.65;;;5.55;;
47309;SDS011;33046;52.270;6.832;2023-07-30T08:20:59;10.95;;;4.90;;
47309;SDS011;33046;52.270;6.832;2023-07-30T08:23:06;8.20;;;3.88;;
47309;SDS011;33046;52.270;6.832;2023-07-30T08:25:14;13.35;;;5.80;;
47309;SDS011;33046;52.270;6.832;2023-07-30T08:27:21;12.15;;;5.63;;
47309;SDS011;33046;52.270;6.832;2023-07-30T08:29:28;13.57;;;4.85;;
47309;SDS011;33046;52.270;6.832;2023-07-30T08:31:35;10.20;;;4.35;;
47309;SDS011;33046;52.270;6.832;2023-07-30T08:33:42;13.27;;;6.20;;
47309;SDS011;33046;52.270;6.832;2023-07-30T08:35:49;14.05;;;5.47;;
47309;SDS011;33046;52.270;6.832;2023-07-30T08:37:56;13.13;;;4.82;;
47309;SDS011;33046;52.270;6.832;2023-07-30T08:40:03;13.68;;;5.47;;
47309;SDS011;33046;52.270;6.832;2023-07-30T08:42:12;12.13;;;5.03;;
47309;SDS011;33046;52.270;6.832;2023-07-30T08:44:19;9.20;;;4.60;;
47309;SDS011;33046;52.270;6.832;2023-07-30T08:46:26;14.75;;;5.03;;
47309;SDS011;33046;52.270;6.832;2023-07-30T08:48:33;11.05;;;4.40;;
47309;SDS011;33046;52.270;6.832;2023-07-30T08:50:40;11.50;;;4.55;;
47309;SDS011;33046;52.270;6.832;2023-07-30T08:52:47;11.10;;;4.57;;
47309;SDS011;33046;52.270;6.832;2023-07-30T08:54:55;12.40;;;6.05;;
47309;SDS011;33046;52.270;6.832;2023-07-30T08:57:04;14.32;;;4.30;;
47309;SDS011;33046;52.270;6.832;2023-07-30T08:59:13;9.02;;;3.38;;
47309;SDS011;33046;52.270;6.832;2023-07-30T09:01:21;9.40;;;3.20;;
47309;SDS011;33046;52.270;6.832;2023-07-30T09:03:32;11.02;;;3.38;;
47309;SDS011;33046;52.270;6.832;2023-07-30T09:05:42;11.00;;;4.32;;
47309;SDS011;33046;52.270;6.832;2023-07-30T09:07:49;16.60;;;4.30;;
47309;SDS011;33046;52.270;6.832;2023-07-30T09:09:56;11.23;;;3.88;;
47309;SDS011;33046;52.270;6.832;2023-07-30T09:12:04;8.52;;;3.55;;
47309;SDS011;33046;52.270;6.832;2023-07-30T09:14:20;9.85;;;3.78;;
47309;SDS011;33046;52.270;6.832;2023-07-30T09:16:27;12.18;;;3.05;;
47309;SDS011;33046;52.270;6.832;2023-07-30T09:18:37;13.30;;;4.10;;
47309;SDS011;33046;52.270;6.832;2023-07-30T09:20:45;12.35;;;4.35;;
47309;SDS011;33046;52.270;6.832;2023-07-30T09:22:55;7.13;;;3.28;;
47309;SDS011;33046;52.270;6.832;2023-07-30T09:25:03;9.43;;;2.72;;
47309;SDS011;33046;52.270;6.832;2023-07-30T09:27:10;8.50;;;3.53;;
47309;SDS011;33046;52.270;6.832;2023-07-30T09:29:17;8.95;;;3.13;;
47309;SDS011;33046;52.270;6.832;2023-07-30T09:31:25;8.05;;;2.70;;
47309;SDS011;33046;52.270;6.832;2023-07-30T09:33:33;10.15;;;3.50;;
47309;SDS011;33046;52.270;6.832;2023-07-30T09:35:41;8.82;;;2.88;;
47309;SDS011;33046;52.270;6.832;2023-07-30T09:37:50;7.38;;;2.65;;
47309;SDS011;33046;52.270;6.832;2023-07-30T09:40:04;10.45;;;2.55;;
47309;SDS011;33046;52.270;6.832;2023-07-30T09:42:12;6.85;;;1.70;;
47309;SDS011;33046;52.270;6.832;2023-07-30T09:44:20;5.63;;;1.80;;
47309;SDS011;33046;52.270;6.832;2023-07-30T09:46:30;10.02;;;2.00;;
47309;SDS011;33046;52.270;6.832;2023-07-30T09:48:36;7.13;;;2.40;;
47309;SDS011;33046;52.270;6.832;2023-07-30T09:50:43;8.40;;;1.88;;
47309;SDS011;33046;52.270;6.832;2023-07-30T09:52:51;8.07;;;2.28;;
47309;SDS011;33046;52.270;6.832;2023-07-30T09:54:58;8.23;;;2.83;;
47309;SDS011;33046;52.270;6.832;2023-07-30T09:57:06;4.70;;;1.80;;
47309;SDS011;33046;52.270;6.832;2023-07-30T09:59:13;5.65;;;1.80;;
47309;SDS011;33046;52.270;6.832;2023-07-30T10:01:20;6.07;;;1.80;;
47309;SDS011;33046;52.270;6.832;2023-07-30T10:03:33;4.93;;;1.67;;
47309;SDS011;33046;52.270;6.832;2023-07-30T10:05:41;5.30;;;1.45;;
47309;SDS011;33046;52.270;6.832;2023-07-30T10:07:53;11.10;;;2.08;;
47309;SDS011;33046;52.270;6.832;2023-07-30T10:10:04;5.97;;;1.92;;
47309;SDS011;33046;52.270;6.832;2023-07-30T10:12:12;8.07;;;1.55;;
47309;SDS011;33046;52.270;6.832;2023-07-30T10:14:22;6.57;;;1.58;;
47309;SDS011;33046;52.270;6.832;2023-07-30T10:16:31;11.48;;;2.13;;
47309;SDS011;33046;52.270;6.832;2023-07-30T10:18:40;6.10;;;1.52;;
47309;SDS011;33046;52.270;6.832;2023-07-30T10:20:51;5.50;;;2.60;;
47309;SDS011;33046;52.270;6.832;2023-07-30T10:22:59;4.35;;;1.10;;
47309;SDS011;33046;52.270;6.832;2023-07-30T10:25:07;12.43;;;1.90;;
47309;SDS011;33046;52.270;6.832;2023-07-30T10:27:22;7.15;;;1.75;;
47309;SDS011;33046;52.270;6.832;2023-07-30T10:29:30;4.40;;;1.30;;
47309;SDS011;33046;52.270;6.832;2023-07-30T10:31:40;5.50;;;1.50;;
47309;SDS011;33046;52.270;6.832;2023-07-30T10:33:51;7.90;;;1.95;;
47309;SDS011;33046;52.270;6.832;2023-07-30T10:35:58;8.23;;;1.85;;
47309;SDS011;33046;52.270;6.832;2023-07-30T10:38:14;9.27;;;2.78;;
47309;SDS011;33046;52.270;6.832;2023-07-30T10:40:22;6.03;;;1.75;;
47309;SDS011;33046;52.270;6.832;2023-07-30T10:42:32;9.35;;;1.75;;
47309;SDS011;33046;52.270;6.832;2023-07-30T10:44:40;4.88;;;1.20;;
47309;SDS011;33046;52.270;6.832;2023-07-30T10:46:50;10.23;;;2.60;;
47309;SDS011;33046;52.270;6.832;2023-07-30T10:48:58;9.98;;;1.50;;
47309;SDS011;33046;52.270;6.832;2023-07-30T10:51:06;4.50;;;1.20;;
47309;SDS011;33046;52.270;6.832;2023-07-30T10:53:14;6.00;;;1.20;;
47309;SDS011;33046;52.270;6.832;2023-07-30T10:55:21;7.03;;;1.60;;
47309;SDS011;33046;52.270;6.832;2023-07-30T10:57:35;5.57;;;2.55;;
47309;SDS011;33046;52.270;6.832;2023-07-30T10:59:43;6.43;;;1.25;;
47309;SDS011;33046;52.270;6.832;2023-07-30T11:01:52;6.13;;;1.88;;
47309;SDS011;33046;52.270;6.832;2023-07-30T11:04:00;7.78;;;1.05;;
47309;SDS011;33046;52.270;6.832;2023-07-30T11:06:07;3.35;;;1.48;;
47309;SDS011;33046;52.270;6.832;2023-07-30T11:08:14;5.82;;;1.52;;
47309;SDS011;33046;52.270;6.832;2023-07-30T11:10:21;7.88;;;1.55;;
47309;SDS011;33046;52.270;6.832;2023-07-30T11:12:28;8.13;;;1.60;;
47309;SDS011;33046;52.270;6.832;2023-07-30T11:14:35;6.65;;;1.60;;
47309;SDS011;33046;52.270;6.832;2023-07-30T11:16:47;3.95;;;1.13;;
47309;SDS011;33046;52.270;6.832;2023-07-30T11:18:54;3.47;;;1.20;;
47309;SDS011;33046;52.270;6.832;2023-07-30T11:21:03;8.65;;;2.97;;
47309;SDS011;33046;52.270;6.832;2023-07-30T11:23:17;5.63;;;1.50;;
47309;SDS011;33046;52.270;6.832;2023-07-30T11:25:25;7.60;;;2.00;;
47309;SDS011;33046;52.270;6.832;2023-07-30T11:27:44;7.05;;;1.73;;
47309;SDS011;33046;52.270;6.832;2023-07-30T11:29:54;6.25;;;1.63;;
47309;SDS011;33046;52.270;6.832;2023-07-30T11:32:01;5.10;;;1.40;;
47309;SDS011;33046;52.270;6.832;2023-07-30T11:34:08;5.63;;;1.63;;
47309;SDS011;33046;52.270;6.832;2023-07-30T11:36:17;5.60;;;1.50;;
47309;SDS011;33046;52.270;6.832;2023-07-30T11:38:26;6.93;;;1.33;;
47309;SDS011;33046;52.270;6.832;2023-07-30T11:40:33;8.18;;;1.83;;
47309;SDS011;33046;52.270;6.832;2023-07-30T11:42:40;6.97;;;1.23;;
47309;SDS011;33046;52.270;6.832;2023-07-30T11:44:48;9.20;;;1.95;;
47309;SDS011;33046;52.270;6.832;2023-07-30T11:46:55;6.85;;;1.92;;
47309;SDS011;33046;52.270;6.832;2023-07-30T11:49:11;6.15;;;1.52;;
47309;SDS011;33046;52.270;6.832;2023-07-30T11:51:23;4.95;;;1.08;;
47309;SDS011;33046;52.270;6.832;2023-07-30T11:55:50;5.70;;;1.10;;
47309;SDS011;33046;52.270;6.832;2023-07-30T11:57:57;5.22;;;1.20;;
47309;SDS011;33046;52.270;6.832;2023-07-30T12:00:06;5.68;;;1.20;;
47309;SDS011;33046;52.270;6.832;2023-07-30T12:02:17;5.22;;;1.60;;
47309;SDS011;33046;52.270;6.832;2023-07-30T12:04:24;4.80;;;0.90;;
47309;SDS011;33046;52.270;6.832;2023-07-30T12:06:39;7.10;;;1.00;;
47309;SDS011;33046;52.270;6.832;2023-07-30T12:08:48;12.48;;;1.63;;
47309;SDS011;33046;52.270;6.832;2023-07-30T12:10:55;5.95;;;1.00;;
47309;SDS011;33046;52.270;6.832;2023-07-30T12:13:02;3.75;;;1.00;;
47309;SDS011;33046;52.270;6.832;2023-07-30T12:15:09;14.38;;;1.17;;
47309;SDS011;33046;52.270;6.832;2023-07-30T12:17:17;5.75;;;1.40;;
47309;SDS011;33046;52.270;6.832;2023-07-30T12:19:24;8.13;;;0.95;;
47309;SDS011;33046;52.270;6.832;2023-07-30T12:21:31;3.47;;;1.00;;
47309;SDS011;33046;52.270;6.832;2023-07-30T12:23:39;5.15;;;1.20;;
47309;SDS011;33046;52.270;6.832;2023-07-30T12:25:46;6.60;;;1.48;;
47309;SDS011;33046;52.270;6.832;2023-07-30T12:27:53;5.85;;;1.35;;
47309;SDS011;33046;52.270;6.832;2023-07-30T12:30:00;4.75;;;0.90;;
47309;SDS011;33046;52.270;6.832;2023-07-30T12:32:07;3.97;;;1.35;;
47309;SDS011;33046;52.270;6.832;2023-07-30T12:34:14;3.55;;;1.30;;
47309;SDS011;33046;52.270;6.832;2023-07-30T12:36:21;3.90;;;0.68;;
47309;SDS011;33046;52.270;6.832;2023-07-30T12:38:28;2.92;;;0.82;;
47309;SDS011;33046;52.270;6.832;2023-07-30T12:40:36;5.97;;;1.42;;
47309;SDS011;33046;52.270;6.832;2023-07-30T12:42:43;2.22;;;0.80;;
47309;SDS011;33046;52.270;6.832;2023-07-30T12:44:50;6.32;;;1.05;;
47309;SDS011;33046;52.270;6.832;2023-07-30T12:46:57;4.18;;;0.98;;